createdAt,value
2022-11-08T00:00:04.134Z,936.84
2022-11-08T00:01:04.117Z,936.82
2022-11-08T00:02:04.275Z,936.78
2022-11-08T00:03:04.176Z,936.81
2022-11-08T00:04:04.074Z,936.79
2022-11-08T00:05:04.062Z,936.81
2022-11-08T00:06:04.062Z,936.79
2022-11-08T00:07:04.041Z,936.81
2022-11-08T00:08:04.130Z,936.83
2022-11-08T00:09:04.017Z,936.86
2022-11-08T00:10:04.007Z,936.87
2022-11-08T00:11:03.997Z,936.90
2022-11-08T00:12:03.974Z,936.95
2022-11-08T00:13:03.967Z,936.92
2022-11-08T00:14:03.951Z,936.92
2022-11-08T00:15:03.940Z,936.96
2022-11-08T00:16:03.924Z,936.96
2022-11-08T00:17:03.912Z,936.97
2022-11-08T00:18:03.901Z,937.01
2022-11-08T00:19:03.878Z,937.00
2022-11-08T00:20:03.877Z,936.95
2022-11-08T00:21:03.865Z,937.00
2022-11-08T00:22:03.854Z,936.98
2022-11-08T00:23:03.859Z,937.00
2022-11-08T00:24:03.816Z,937.05
2022-11-08T00:25:03.816Z,937.08
2022-11-08T00:26:03.791Z,937.08
2022-11-08T00:27:03.777Z,937.13
2022-11-08T00:28:03.864Z,937.19
2022-11-08T00:29:03.752Z,937.18
2022-11-08T00:30:03.741Z,937.20
2022-11-08T00:31:03.726Z,937.14
2022-11-08T00:32:03.715Z,937.19
2022-11-08T00:33:03.700Z,937.15
2022-11-08T00:34:03.692Z,937.17
2022-11-08T00:35:03.678Z,937.17
2022-11-08T00:36:03.670Z,937.15
2022-11-08T00:37:03.652Z,937.21
2022-11-08T00:38:03.649Z,937.15
2022-11-08T00:39:03.875Z,937.17
2022-11-08T00:40:03.627Z,937.18
2022-11-08T00:41:03.611Z,937.24
2022-11-08T00:42:03.597Z,937.25
2022-11-08T00:43:03.585Z,937.25
2022-11-08T00:44:03.573Z,937.25
2022-11-08T00:45:03.556Z,937.28
2022-11-08T00:46:03.549Z,937.30
2022-11-08T00:47:03.534Z,937.32
2022-11-08T00:48:03.523Z,937.28
2022-11-08T00:49:03.509Z,937.29
2022-11-08T00:50:03.594Z,937.27
2022-11-08T00:51:03.478Z,937.31
2022-11-08T00:52:03.465Z,937.29
2022-11-08T00:53:03.460Z,937.27
2022-11-08T00:54:03.448Z,937.27
2022-11-08T00:55:03.430Z,937.27
2022-11-08T00:56:03.423Z,937.23
2022-11-08T00:57:03.415Z,937.29
2022-11-08T00:58:03.392Z,937.33
2022-11-08T00:59:03.379Z,937.34
2022-11-08T01:00:03.368Z,937.32
2022-11-08T01:01:03.493Z,937.34
2022-11-08T01:02:03.530Z,937.31
2022-11-08T01:03:03.331Z,937.28
2022-11-08T01:04:03.311Z,937.21
2022-11-08T01:05:03.314Z,937.25
2022-11-08T01:06:03.289Z,937.19
2022-11-08T01:07:03.280Z,937.17
2022-11-08T01:08:03.262Z,937.20
2022-11-08T01:09:03.258Z,937.23
2022-11-08T01:10:03.238Z,937.15
2022-11-08T01:11:03.225Z,937.21
2022-11-08T01:12:03.312Z,937.20
2022-11-08T01:13:03.205Z,937.26
2022-11-08T01:14:03.189Z,937.21
2022-11-08T01:15:03.239Z,937.20
2022-11-08T01:16:03.168Z,937.23
2022-11-08T01:17:03.146Z,937.20
2022-11-08T01:18:03.137Z,937.20
2022-11-08T01:19:03.125Z,937.22
2022-11-08T01:20:03.114Z,937.21
2022-11-08T01:21:03.100Z,937.18
2022-11-08T01:22:03.185Z,937.18
2022-11-08T01:23:03.069Z,937.17
2022-11-08T01:24:03.061Z,937.14
2022-11-08T01:25:03.050Z,937.16
2022-11-08T01:26:03.039Z,937.15
2022-11-08T01:27:03.025Z,937.17
2022-11-08T01:28:03.007Z,937.17
2022-11-08T01:29:02.998Z,937.19
2022-11-08T01:30:02.981Z,937.19
2022-11-08T01:31:02.970Z,937.18
2022-11-08T01:32:02.959Z,937.20
2022-11-08T01:33:02.943Z,937.21
2022-11-08T01:34:02.929Z,937.25
2022-11-08T01:35:02.919Z,937.24
2022-11-08T01:36:02.907Z,937.21
2022-11-08T01:37:02.995Z,937.22
2022-11-08T01:38:02.877Z,937.17
2022-11-08T01:39:02.870Z,937.14
2022-11-08T01:40:02.849Z,937.13
2022-11-08T01:41:02.860Z,937.06
2022-11-08T01:42:02.830Z,937.09
2022-11-08T01:43:02.814Z,937.09
2022-11-08T01:44:02.802Z,937.06
2022-11-08T01:45:02.790Z,937.09
2022-11-08T01:46:02.775Z,937.08
2022-11-08T01:47:02.875Z,937.08
2022-11-08T01:48:02.744Z,937.05
2022-11-08T01:49:02.735Z,937.05
2022-11-08T01:50:02.717Z,937.01
2022-11-08T01:51:02.704Z,937.07
2022-11-08T01:52:02.690Z,937.09
2022-11-08T01:53:02.680Z,937.11
2022-11-08T01:54:02.664Z,937.04
2022-11-08T01:55:02.682Z,937.04
2022-11-08T01:56:02.641Z,937.01
2022-11-08T01:57:02.630Z,937.00
2022-11-08T01:58:02.611Z,937.03
2022-11-08T01:59:02.600Z,936.98
2022-11-08T02:00:02.586Z,937.00
2022-11-08T02:01:02.605Z,936.99
2022-11-08T02:02:02.736Z,936.94
2022-11-08T02:03:02.548Z,936.95
2022-11-08T02:04:02.533Z,936.92
2022-11-08T02:05:02.518Z,936.95
2022-11-08T02:06:02.503Z,936.93
2022-11-08T02:07:02.490Z,936.94
2022-11-08T02:08:02.581Z,936.92
2022-11-08T02:09:02.467Z,936.91
2022-11-08T02:10:02.449Z,936.91
2022-11-08T02:11:02.444Z,936.91
2022-11-08T02:12:02.429Z,936.88
2022-11-08T02:13:04.994Z,936.91
2022-11-08T02:14:02.399Z,936.91
2022-11-08T02:15:02.383Z,936.93
2022-11-08T02:16:02.376Z,936.89
2022-11-08T02:17:02.361Z,936.86
2022-11-08T02:18:02.343Z,936.82
2022-11-08T02:19:02.438Z,936.80
2022-11-08T02:20:02.321Z,936.79
2022-11-08T02:21:02.308Z,936.75
2022-11-08T02:22:02.297Z,936.75
2022-11-08T02:23:02.281Z,936.72
2022-11-08T02:24:02.270Z,936.71
2022-11-08T02:25:02.260Z,936.69
2022-11-08T02:26:02.241Z,936.67
2022-11-08T02:27:02.230Z,936.65
2022-11-08T02:28:02.212Z,936.65
2022-11-08T02:29:02.201Z,936.60
2022-11-08T02:30:02.191Z,936.58
2022-11-08T02:31:02.179Z,936.60
2022-11-08T02:32:02.157Z,936.53
2022-11-08T02:33:02.151Z,936.55
2022-11-08T02:34:02.134Z,936.51
2022-11-08T02:35:02.124Z,936.50
2022-11-08T02:36:02.109Z,936.47
2022-11-08T02:37:02.091Z,936.51
2022-11-08T02:38:02.082Z,936.52
2022-11-08T02:39:02.067Z,936.55
2022-11-08T02:40:02.153Z,936.56
2022-11-08T02:41:02.042Z,936.55
2022-11-08T02:42:02.028Z,936.57
2022-11-08T02:43:02.012Z,936.55
2022-11-08T02:44:01.999Z,936.56
2022-11-08T02:45:01.996Z,936.54
2022-11-08T02:46:01.973Z,936.54
2022-11-08T02:47:01.967Z,936.51
2022-11-08T02:48:01.964Z,936.50
2022-11-08T02:49:01.940Z,936.52
2022-11-08T02:50:01.929Z,936.53
2022-11-08T02:51:01.909Z,936.50
2022-11-08T02:52:01.894Z,936.49
2022-11-08T02:53:01.885Z,936.43
2022-11-08T02:54:01.877Z,936.42
2022-11-08T02:55:01.980Z,936.39
2022-11-08T02:56:01.849Z,936.40
2022-11-08T02:57:01.830Z,936.35
2022-11-08T02:58:01.821Z,936.36
2022-11-08T02:59:01.809Z,936.40
2022-11-08T03:00:01.786Z,936.38
2022-11-08T03:01:01.820Z,936.41
2022-11-08T03:02:01.875Z,936.37
2022-11-08T03:03:01.751Z,936.33
2022-11-08T03:04:01.747Z,936.34
2022-11-08T03:05:01.824Z,936.30
2022-11-08T03:06:01.707Z,936.28
2022-11-08T03:07:01.702Z,936.29
2022-11-08T03:08:01.685Z,936.28
2022-11-08T03:09:01.667Z,936.26
2022-11-08T03:10:01.662Z,936.28
2022-11-08T03:11:01.646Z,936.28
2022-11-08T03:12:01.634Z,936.23
2022-11-08T03:13:01.619Z,936.22
2022-11-08T03:14:01.609Z,936.16
2022-11-08T03:15:01.605Z,936.19
2022-11-08T03:16:01.581Z,936.15
2022-11-08T03:17:01.568Z,936.13
2022-11-08T03:18:01.550Z,936.13
2022-11-08T03:19:01.539Z,936.11
2022-11-08T03:20:01.531Z,936.06
2022-11-08T03:21:01.628Z,936.11
2022-11-08T03:22:01.498Z,936.04
2022-11-08T03:23:01.486Z,936.01
2022-11-08T03:24:01.475Z,936.04
2022-11-08T03:25:01.478Z,936.03
2022-11-08T03:26:01.446Z,936.01
2022-11-08T03:27:01.539Z,936.04
2022-11-08T03:28:01.417Z,936.04
2022-11-08T03:29:01.400Z,936.06
2022-11-08T03:30:01.395Z,936.07
2022-11-08T03:31:01.373Z,936.08
2022-11-08T03:32:01.367Z,936.06
2022-11-08T03:33:01.446Z,936.07
2022-11-08T03:34:01.341Z,936.03
2022-11-08T03:35:01.327Z,936.01
2022-11-08T03:36:01.312Z,936.03
2022-11-08T03:37:01.298Z,935.98
2022-11-08T03:38:01.280Z,935.96
2022-11-08T03:39:01.375Z,935.97
2022-11-08T03:40:01.258Z,935.96
2022-11-08T03:41:01.246Z,935.98
2022-11-08T03:42:01.228Z,935.94
2022-11-08T03:43:01.211Z,935.96
2022-11-08T03:44:01.296Z,935.96
2022-11-08T03:45:01.191Z,935.94
2022-11-08T03:46:01.173Z,935.89
2022-11-08T03:47:01.162Z,935.90
2022-11-08T03:48:01.144Z,935.89
2022-11-08T03:49:01.237Z,935.90
2022-11-08T03:50:01.129Z,935.91
2022-11-08T03:51:01.106Z,935.92
2022-11-08T03:52:01.100Z,935.89
2022-11-08T03:53:01.081Z,935.85
2022-11-08T03:54:01.162Z,935.85
2022-11-08T03:55:01.053Z,935.83
2022-11-08T03:56:01.040Z,935.82
2022-11-08T03:57:01.029Z,935.77
2022-11-08T03:58:01.008Z,935.78
2022-11-08T03:59:01.098Z,935.79
2022-11-08T04:00:00.985Z,935.78
2022-11-08T04:01:01.000Z,935.79
2022-11-08T04:02:01.113Z,935.76
2022-11-08T04:03:00.942Z,935.76
2022-11-08T04:04:01.029Z,935.75
2022-11-08T04:05:00.912Z,935.71
2022-11-08T04:06:00.900Z,935.72
2022-11-08T04:07:00.890Z,935.69
2022-11-08T04:08:00.875Z,935.63
2022-11-08T04:09:01.006Z,935.66
2022-11-08T04:10:00.851Z,935.61
2022-11-08T04:11:00.829Z,935.63
2022-11-08T04:12:00.819Z,935.59
2022-11-08T04:13:00.807Z,935.57
2022-11-08T04:14:00.892Z,935.55
2022-11-08T04:15:00.781Z,935.56
2022-11-08T04:16:00.812Z,935.52
2022-11-08T04:17:00.754Z,935.48
2022-11-08T04:18:00.739Z,935.50
2022-11-08T04:19:00.723Z,935.47
2022-11-08T04:20:00.808Z,935.50
2022-11-08T04:21:00.695Z,935.48
2022-11-08T04:22:00.681Z,935.47
2022-11-08T04:23:00.666Z,935.43
2022-11-08T04:24:00.652Z,935.45
2022-11-08T04:25:00.645Z,935.45
2022-11-08T04:26:00.725Z,935.41
2022-11-08T04:27:00.615Z,935.41
2022-11-08T04:28:00.598Z,935.38
2022-11-08T04:29:00.582Z,935.32
2022-11-08T04:30:00.568Z,935.28
2022-11-08T04:31:00.569Z,935.26
2022-11-08T04:32:00.648Z,935.28
2022-11-08T04:33:00.535Z,935.28
2022-11-08T04:34:00.516Z,935.27
2022-11-08T04:35:00.502Z,935.25
2022-11-08T04:36:00.495Z,935.25
2022-11-08T04:37:00.477Z,935.24
2022-11-08T04:38:00.460Z,935.22
2022-11-08T04:39:00.449Z,935.19
2022-11-08T04:40:00.435Z,935.13
2022-11-08T04:41:00.424Z,935.14
2022-11-08T04:42:02.394Z,935.08
2022-11-08T04:43:00.494Z,935.08
2022-11-08T04:44:00.383Z,935.05
2022-11-08T04:45:00.368Z,935.04
2022-11-08T04:46:00.356Z,935.04
2022-11-08T04:47:00.344Z,935.07
2022-11-08T04:48:00.326Z,935.06
2022-11-08T04:49:00.408Z,935.08
2022-11-08T04:50:00.301Z,935.07
2022-11-08T04:51:00.281Z,935.05
2022-11-08T04:52:00.272Z,935.03
2022-11-08T04:53:00.262Z,935.02
2022-11-08T04:54:00.248Z,934.98
2022-11-08T04:55:00.230Z,934.98
2022-11-08T04:56:00.220Z,934.92
2022-11-08T04:57:00.204Z,934.92
2022-11-08T04:58:00.192Z,934.90
2022-11-08T04:59:00.176Z,934.90
2022-11-08T05:00:00.170Z,934.90
2022-11-08T05:01:00.235Z,934.85
2022-11-08T05:02:00.376Z,934.83
2022-11-08T05:03:00.120Z,934.83
2022-11-08T05:04:00.205Z,934.83
2022-11-08T05:05:00.100Z,934.82
2022-11-08T05:06:00.097Z,934.81
2022-11-08T05:07:00.074Z,934.82
2022-11-08T05:08:00.057Z,934.80
2022-11-08T05:09:00.049Z,934.78
2022-11-08T05:10:02.387Z,934.75
2022-11-08T05:11:00.008Z,934.75
2022-11-08T05:11:59.996Z,934.74
2022-11-08T05:12:59.986Z,934.72
2022-11-08T05:14:00.090Z,934.74
2022-11-08T05:14:59.961Z,934.72
2022-11-08T05:15:59.944Z,934.67
2022-11-08T05:16:59.930Z,934.68
2022-11-08T05:17:59.923Z,934.66
2022-11-08T05:18:59.905Z,934.66
2022-11-08T05:19:59.895Z,934.69
2022-11-08T05:20:59.875Z,934.71
2022-11-08T05:21:59.859Z,934.67
2022-11-08T05:22:59.851Z,934.68
2022-11-08T05:23:59.834Z,934.68
2022-11-08T05:24:59.819Z,934.64
2022-11-08T05:25:59.810Z,934.65
2022-11-08T05:26:59.792Z,934.66
2022-11-08T05:27:59.788Z,934.61
2022-11-08T05:28:59.867Z,934.67
2022-11-08T05:29:59.751Z,934.65
2022-11-08T05:30:59.740Z,934.69
2022-11-08T05:31:59.727Z,934.66
2022-11-08T05:32:59.711Z,934.66
2022-11-08T05:33:59.706Z,934.67
2022-11-08T05:34:59.681Z,934.72
2022-11-08T05:36:03.413Z,934.72
2022-11-08T05:36:59.658Z,934.68
2022-11-08T05:37:59.644Z,934.72
2022-11-08T05:38:59.630Z,934.70
2022-11-08T05:39:59.619Z,934.71
2022-11-08T05:40:59.600Z,934.70
2022-11-08T05:41:59.588Z,934.68
2022-11-08T05:42:59.571Z,934.71
2022-11-08T05:43:59.561Z,934.68
2022-11-08T05:45:00.604Z,934.66
2022-11-08T05:45:59.530Z,934.64
2022-11-08T05:46:59.514Z,934.63
2022-11-08T05:47:59.508Z,934.63
2022-11-08T05:48:59.495Z,934.60
2022-11-08T05:49:59.482Z,934.60
2022-11-08T05:50:59.466Z,934.52
2022-11-08T05:51:59.449Z,934.57
2022-11-08T05:52:59.435Z,934.55
2022-11-08T05:53:59.427Z,934.56
2022-11-08T05:54:59.406Z,934.57
2022-11-08T05:55:59.402Z,934.57
2022-11-08T05:56:59.382Z,934.59
2022-11-08T05:57:59.364Z,934.59
2022-11-08T05:58:59.350Z,934.58
2022-11-08T05:59:59.344Z,934.58
2022-11-08T06:00:59.425Z,934.54
2022-11-08T06:01:59.348Z,934.54
2022-11-08T06:02:59.323Z,934.59
2022-11-08T06:03:59.282Z,934.58
2022-11-08T06:04:59.272Z,934.57
2022-11-08T06:05:59.255Z,934.60
2022-11-08T06:06:59.246Z,934.60
2022-11-08T06:07:59.229Z,934.58
2022-11-08T06:08:59.220Z,934.59
2022-11-08T06:09:59.203Z,934.63
2022-11-08T06:10:59.285Z,934.61
2022-11-08T06:11:59.174Z,934.57
2022-11-08T06:12:59.163Z,934.57
2022-11-08T06:13:59.145Z,934.50
2022-11-08T06:14:59.131Z,934.51
2022-11-08T06:15:59.118Z,934.48
2022-11-08T06:16:59.105Z,934.55
2022-11-08T06:17:59.087Z,934.51
2022-11-08T06:18:59.076Z,934.53
2022-11-08T06:19:59.065Z,934.53
2022-11-08T06:20:59.057Z,934.51
2022-11-08T06:21:59.040Z,934.55
2022-11-08T06:22:59.023Z,934.51
2022-11-08T06:23:59.012Z,934.50
2022-11-08T06:24:58.998Z,934.53
2022-11-08T06:25:59.081Z,934.49
2022-11-08T06:26:58.966Z,934.50
2022-11-08T06:27:58.951Z,934.47
2022-11-08T06:28:58.940Z,934.50
2022-11-08T06:29:58.929Z,934.50
2022-11-08T06:30:58.914Z,934.43
2022-11-08T06:31:58.899Z,934.42
2022-11-08T06:32:58.888Z,934.43
2022-11-08T06:33:58.875Z,934.41
2022-11-08T06:34:58.863Z,934.38
2022-11-08T06:35:58.844Z,934.37
2022-11-08T06:36:58.833Z,934.37
2022-11-08T06:38:00.697Z,934.32
2022-11-08T06:38:58.807Z,934.31
2022-11-08T06:39:58.794Z,934.36
2022-11-08T06:40:58.882Z,934.31
2022-11-08T06:41:58.762Z,934.32
2022-11-08T06:42:58.743Z,934.30
2022-11-08T06:43:58.734Z,934.28
2022-11-08T06:44:58.724Z,934.30
2022-11-08T06:45:58.708Z,934.34
2022-11-08T06:46:58.695Z,934.33
2022-11-08T06:47:58.685Z,934.36
2022-11-08T06:48:58.669Z,934.34
2022-11-08T06:49:58.656Z,934.35
2022-11-08T06:50:58.639Z,934.41
2022-11-08T06:51:58.625Z,934.41
2022-11-08T06:52:58.610Z,934.40
2022-11-08T06:53:58.599Z,934.44
2022-11-08T06:54:58.587Z,934.45
2022-11-08T06:55:58.570Z,934.45
2022-11-08T06:56:58.656Z,934.43
2022-11-08T06:57:58.542Z,934.44
2022-11-08T06:58:58.531Z,934.48
2022-11-08T06:59:58.519Z,934.43
2022-11-08T07:00:58.499Z,934.45
2022-11-08T07:01:58.560Z,934.46
2022-11-08T07:02:58.630Z,934.44
2022-11-08T07:03:58.467Z,934.43
2022-11-08T07:04:58.451Z,934.40
2022-11-08T07:05:58.438Z,934.45
2022-11-08T07:06:58.418Z,934.43
2022-11-08T07:07:58.511Z,934.44
2022-11-08T07:08:58.386Z,934.47
2022-11-08T07:10:02.465Z,934.43
2022-11-08T07:10:58.363Z,934.44
2022-11-08T07:11:58.350Z,934.45
2022-11-08T07:12:58.450Z,934.44
2022-11-08T07:13:58.325Z,934.45
2022-11-08T07:14:58.311Z,934.41
2022-11-08T07:15:58.292Z,934.44
2022-11-08T07:16:58.277Z,934.44
2022-11-08T07:17:58.404Z,934.46
2022-11-08T07:18:58.254Z,934.47
2022-11-08T07:19:58.241Z,934.48
2022-11-08T07:20:58.226Z,934.47
2022-11-08T07:21:58.213Z,934.44
2022-11-08T07:22:58.300Z,934.44
2022-11-08T07:23:58.187Z,934.48
2022-11-08T07:24:58.172Z,934.50
2022-11-08T07:25:58.156Z,934.51
2022-11-08T07:26:58.140Z,934.48
2022-11-08T07:27:58.224Z,934.49
2022-11-08T07:28:58.114Z,934.52
2022-11-08T07:29:58.105Z,934.51
2022-11-08T07:30:58.090Z,934.54
2022-11-08T07:31:58.072Z,934.54
2022-11-08T07:32:58.159Z,934.53
2022-11-08T07:33:58.048Z,934.52
2022-11-08T07:34:58.029Z,934.52
2022-11-08T07:35:58.031Z,934.51
2022-11-08T07:36:58.005Z,934.49
2022-11-08T07:37:58.087Z,934.51
2022-11-08T07:39:00.129Z,934.53
2022-11-08T07:39:57.962Z,934.57
2022-11-08T07:40:57.947Z,934.62
2022-11-08T07:41:57.936Z,934.62
2022-11-08T07:43:11.212Z,934.59
2022-11-08T07:43:57.908Z,934.61
2022-11-08T07:44:57.894Z,934.58
2022-11-08T07:45:57.880Z,934.63
2022-11-08T07:46:57.864Z,934.63
2022-11-08T07:47:57.947Z,934.64
2022-11-08T07:48:57.833Z,934.62
2022-11-08T07:49:57.826Z,934.64
2022-11-08T07:50:57.805Z,934.61
2022-11-08T07:51:57.797Z,934.63
2022-11-08T07:52:57.879Z,934.66
2022-11-08T07:54:02.630Z,934.62
2022-11-08T07:54:57.753Z,934.63
2022-11-08T07:55:57.735Z,934.70
2022-11-08T07:56:57.732Z,934.67
2022-11-08T07:57:57.714Z,934.68
2022-11-08T07:58:57.798Z,934.66
2022-11-08T07:59:57.686Z,934.64
2022-11-08T08:00:57.670Z,934.70
2022-11-08T08:01:57.708Z,934.69
2022-11-08T08:02:57.705Z,934.68
2022-11-08T08:03:57.630Z,934.71
2022-11-08T08:04:57.710Z,934.72
2022-11-08T08:06:00.957Z,934.75
2022-11-08T08:06:57.586Z,934.77
2022-11-08T08:07:57.572Z,934.76
2022-11-08T08:08:57.559Z,934.77
2022-11-08T08:09:57.541Z,934.75
2022-11-08T08:10:57.523Z,934.77
2022-11-08T08:11:57.510Z,934.81
2022-11-08T08:12:57.496Z,934.83
2022-11-08T08:13:57.488Z,934.87
2022-11-08T08:14:57.468Z,934.85
2022-11-08T08:15:57.559Z,934.87
2022-11-08T08:16:57.445Z,934.85
2022-11-08T08:17:57.428Z,934.88
2022-11-08T08:18:57.436Z,934.88
2022-11-08T08:19:57.400Z,934.87
2022-11-08T08:20:57.386Z,934.87
2022-11-08T08:21:57.376Z,934.85
2022-11-08T08:22:57.358Z,934.88
2022-11-08T08:23:57.349Z,934.89
2022-11-08T08:25:01.874Z,934.86
2022-11-08T08:25:57.417Z,934.92
2022-11-08T08:26:57.298Z,934.93
2022-11-08T08:27:57.286Z,934.97
2022-11-08T08:28:57.273Z,934.94
2022-11-08T08:29:57.259Z,934.99
2022-11-08T08:30:57.350Z,934.98
2022-11-08T08:31:57.237Z,935.03
2022-11-08T08:33:21.875Z,935.02
2022-11-08T08:33:57.199Z,935.06
2022-11-08T08:34:57.184Z,935.08
2022-11-08T08:35:57.282Z,935.05
2022-11-08T08:36:57.161Z,935.08
2022-11-08T08:37:57.147Z,935.10
2022-11-08T08:38:57.130Z,935.10
2022-11-08T08:39:57.118Z,935.15
2022-11-08T08:40:57.206Z,935.15
2022-11-08T08:41:57.098Z,935.19
2022-11-08T08:42:57.077Z,935.17
2022-11-08T08:43:57.063Z,935.15
2022-11-08T08:44:57.053Z,935.19
2022-11-08T08:45:57.129Z,935.18
2022-11-08T08:46:57.020Z,935.21
2022-11-08T08:47:57.003Z,935.19
2022-11-08T08:48:56.991Z,935.21
2022-11-08T08:49:56.975Z,935.23
2022-11-08T08:50:57.061Z,935.26
2022-11-08T08:51:56.946Z,935.30
2022-11-08T08:52:56.932Z,935.30
2022-11-08T08:53:56.921Z,935.34
2022-11-08T08:54:56.904Z,935.37
2022-11-08T08:55:56.991Z,935.37
2022-11-08T08:56:56.876Z,935.39
2022-11-08T08:57:56.863Z,935.33
2022-11-08T09:01:56.803Z,935.36
2022-11-08T09:02:56.789Z,935.40
2022-11-08T09:03:56.778Z,935.36
2022-11-08T09:04:56.763Z,935.43
2022-11-08T09:05:56.847Z,935.44
2022-11-08T09:06:56.803Z,935.46
2022-11-08T09:07:56.721Z,935.48
2022-11-08T09:08:56.707Z,935.54
2022-11-08T09:09:56.691Z,935.48
2022-11-08T09:10:56.677Z,935.46
2022-11-08T09:11:56.764Z,935.48
2022-11-08T09:12:56.646Z,935.50
2022-11-08T09:13:56.640Z,935.48
2022-11-08T09:14:56.621Z,935.50
2022-11-08T09:15:56.630Z,935.54
2022-11-08T09:16:56.597Z,935.56
2022-11-08T09:17:56.787Z,935.59
2022-11-08T09:18:56.566Z,935.59
2022-11-08T09:19:57.424Z,935.61
2022-11-08T09:20:56.543Z,935.61
2022-11-08T09:21:56.580Z,935.64
2022-11-08T09:22:56.508Z,935.64
2022-11-08T09:23:56.598Z,935.61
2022-11-08T09:24:56.479Z,935.63
2022-11-08T09:25:56.464Z,935.61
2022-11-08T09:26:56.453Z,935.64
2022-11-08T09:27:56.436Z,935.62
2022-11-08T09:28:56.525Z,935.61
2022-11-08T09:29:56.411Z,935.62
2022-11-08T09:30:56.400Z,935.61
2022-11-08T09:31:56.378Z,935.65
2022-11-08T09:33:01.318Z,935.66
2022-11-08T09:33:56.524Z,935.70
2022-11-08T09:34:56.396Z,935.70
2022-11-08T09:35:56.322Z,935.70
2022-11-08T09:36:56.318Z,935.69
2022-11-08T09:37:56.296Z,935.75
2022-11-08T09:38:56.286Z,935.73
2022-11-08T09:39:56.270Z,935.74
2022-11-08T09:40:56.253Z,935.71
2022-11-08T09:41:56.244Z,935.74
2022-11-08T09:42:56.235Z,935.72
2022-11-08T09:43:56.211Z,935.75
2022-11-08T09:44:56.203Z,935.77
2022-11-08T09:45:56.199Z,935.74
2022-11-08T09:46:56.174Z,935.74
2022-11-08T09:47:56.158Z,935.74
2022-11-08T09:48:56.243Z,935.73
2022-11-08T09:49:56.126Z,935.72
2022-11-08T09:50:56.120Z,935.71
2022-11-08T09:51:56.100Z,935.73
2022-11-08T09:52:56.086Z,935.75
2022-11-08T09:53:56.069Z,935.79
2022-11-08T09:54:56.062Z,935.84
2022-11-08T09:55:56.045Z,935.84
2022-11-08T09:56:56.031Z,935.82
2022-11-08T09:57:56.016Z,935.85
2022-11-08T09:58:55.999Z,935.89
2022-11-08T09:59:55.987Z,935.89
2022-11-08T10:00:55.975Z,935.90
2022-11-08T10:01:55.985Z,935.97
2022-11-08T10:02:55.947Z,935.93
2022-11-08T10:03:56.024Z,935.98
2022-11-08T10:04:55.918Z,935.98
2022-11-08T10:05:55.904Z,935.99
2022-11-08T10:06:58.171Z,935.99
2022-11-08T10:07:55.868Z,936.00
2022-11-08T10:08:55.858Z,936.02
2022-11-08T10:09:55.840Z,936.06
2022-11-08T10:10:55.830Z,936.09
2022-11-08T10:11:55.814Z,936.04
2022-11-08T10:12:55.803Z,936.06
2022-11-08T10:13:55.890Z,936.11
2022-11-08T10:14:55.771Z,936.07
2022-11-08T10:15:55.763Z,936.03
2022-11-08T10:16:55.752Z,936.10
2022-11-08T10:17:55.734Z,936.14
2022-11-08T10:18:55.721Z,936.15
2022-11-08T10:19:55.811Z,936.14
2022-11-08T10:20:55.691Z,936.12
2022-11-08T10:21:55.678Z,936.19
2022-11-08T10:22:55.670Z,936.16
2022-11-08T10:23:55.645Z,936.22
2022-11-08T10:24:55.636Z,936.21
2022-11-08T10:25:55.645Z,936.23
2022-11-08T10:26:55.612Z,936.24
2022-11-08T10:27:55.600Z,936.26
2022-11-08T10:28:55.581Z,936.25
2022-11-08T10:29:55.564Z,936.24
2022-11-08T10:30:55.557Z,936.25
2022-11-08T10:31:55.542Z,936.23
2022-11-08T10:32:55.529Z,936.25
2022-11-08T10:33:55.513Z,936.26
2022-11-08T10:34:55.500Z,936.25
2022-11-08T10:35:59.155Z,936.26
2022-11-08T10:36:55.471Z,936.28
2022-11-08T10:37:55.459Z,936.25
2022-11-08T10:38:55.450Z,936.27
2022-11-08T10:39:55.432Z,936.28
2022-11-08T10:40:55.516Z,936.28
2022-11-08T10:41:55.407Z,936.28
2022-11-08T10:42:55.387Z,936.32
2022-11-08T10:43:55.374Z,936.30
2022-11-08T10:44:55.373Z,936.33
2022-11-08T10:45:55.351Z,936.32
2022-11-08T10:46:55.342Z,936.28
2022-11-08T10:47:55.328Z,936.25
2022-11-08T10:48:55.317Z,936.21
2022-11-08T10:49:59.551Z,936.24
2022-11-08T10:50:55.285Z,936.27
2022-11-08T10:51:55.272Z,936.26
2022-11-08T10:52:55.261Z,936.28
2022-11-08T10:53:55.302Z,936.26
2022-11-08T10:54:55.237Z,936.26
2022-11-08T10:55:55.318Z,936.27
2022-11-08T10:56:55.215Z,936.24
2022-11-08T10:57:55.200Z,936.26
2022-11-08T10:58:55.180Z,936.31
2022-11-08T10:59:55.163Z,936.29
2022-11-08T11:00:55.152Z,936.33
2022-11-08T11:01:55.168Z,936.32
2022-11-08T11:02:55.123Z,936.28
2022-11-08T11:03:55.110Z,936.33
2022-11-08T11:04:55.102Z,936.32
2022-11-08T11:05:55.187Z,936.30
2022-11-08T11:06:55.106Z,936.28
2022-11-08T11:07:59.130Z,936.30
2022-11-08T11:08:55.050Z,936.34
2022-11-08T11:09:55.039Z,936.33
2022-11-08T11:10:55.026Z,936.35
2022-11-08T11:11:55.011Z,936.35
2022-11-08T11:12:54.999Z,936.34
2022-11-08T11:13:54.988Z,936.31
2022-11-08T11:14:54.972Z,936.34
2022-11-08T11:15:54.956Z,936.41
2022-11-08T11:16:54.943Z,936.42
2022-11-08T11:17:54.936Z,936.47
2022-11-08T11:18:54.921Z,936.45
2022-11-08T11:19:54.916Z,936.46
2022-11-08T11:20:54.997Z,936.51
2022-11-08T11:21:54.879Z,936.52
2022-11-08T11:22:54.869Z,936.50
2022-11-08T11:23:54.858Z,936.48
2022-11-08T11:24:54.848Z,936.46
2022-11-08T11:25:54.828Z,936.49
2022-11-08T11:26:54.820Z,936.47
2022-11-08T11:27:54.807Z,936.52
2022-11-08T11:28:54.794Z,936.48
2022-11-08T11:29:54.782Z,936.50
2022-11-08T11:30:54.768Z,936.55
2022-11-08T11:31:54.834Z,936.54
2022-11-08T11:32:54.836Z,936.53
2022-11-08T11:33:54.737Z,936.52
2022-11-08T11:34:54.729Z,936.51
2022-11-08T11:35:54.712Z,936.51
2022-11-08T11:36:54.797Z,936.55
2022-11-08T11:37:54.681Z,936.53
2022-11-08T11:38:54.673Z,936.52
2022-11-08T11:39:54.661Z,936.50
2022-11-08T11:40:54.677Z,936.48
2022-11-08T11:41:54.636Z,936.48
2022-11-08T11:42:54.635Z,936.42
2022-11-08T11:43:54.620Z,936.43
2022-11-08T11:44:54.604Z,936.39
2022-11-08T11:45:54.587Z,936.44
2022-11-08T11:46:54.575Z,936.44
2022-11-08T11:47:54.561Z,936.43
2022-11-08T11:48:54.550Z,936.44
2022-11-08T11:49:54.535Z,936.44
2022-11-08T11:50:54.597Z,936.42
2022-11-08T11:51:54.517Z,936.41
2022-11-08T11:52:54.604Z,936.40
2022-11-08T11:53:54.491Z,936.37
2022-11-08T11:54:54.481Z,936.38
2022-11-08T11:55:54.465Z,936.39
2022-11-08T11:56:54.458Z,936.35
2022-11-08T11:57:54.443Z,936.38
2022-11-08T11:58:54.433Z,936.37
2022-11-08T11:59:54.417Z,936.41
2022-11-08T12:00:54.415Z,936.42
2022-11-08T12:01:54.453Z,936.41
2022-11-08T12:02:54.382Z,936.40
2022-11-08T12:03:54.382Z,936.41
2022-11-08T12:04:54.367Z,936.37
2022-11-08T12:05:54.350Z,936.43
2022-11-08T12:06:54.364Z,936.39
2022-11-08T12:07:54.328Z,936.38
2022-11-08T12:08:54.317Z,936.35
2022-11-08T12:09:54.305Z,936.36
2022-11-08T12:10:54.295Z,936.42
2022-11-08T12:11:54.284Z,936.45
2022-11-08T12:12:54.277Z,936.42
2022-11-08T12:13:54.721Z,936.41
2022-11-08T12:14:54.256Z,936.43
2022-11-08T12:15:54.245Z,936.41
2022-11-08T12:16:54.249Z,936.44
2022-11-08T12:17:54.224Z,936.48
2022-11-08T12:18:54.215Z,936.46
2022-11-08T12:19:54.203Z,936.47
2022-11-08T12:20:54.196Z,936.45
2022-11-08T12:21:54.184Z,936.47
2022-11-08T12:22:54.173Z,936.45
2022-11-08T12:23:54.168Z,936.52
2022-11-08T12:24:54.159Z,936.49
2022-11-08T12:25:54.144Z,936.50
2022-11-08T12:26:54.142Z,936.50
2022-11-08T12:27:54.129Z,936.41
2022-11-08T12:28:54.119Z,936.41
2022-11-08T12:29:54.104Z,936.42
2022-11-08T12:30:54.103Z,936.38